createdAt,value
2023-08-21T00:00:31.000Z,71.06
2023-08-21T00:01:31.000Z,72.50
2023-08-21T00:02:31.000Z,72.59
2023-08-21T00:03:31.000Z,73.21
2023-08-21T00:04:31.000Z,72.79
2023-08-21T00:05:30.000Z,72.59
2023-08-21T00:06:31.000Z,72.23
2023-08-21T00:07:31.000Z,72.23
2023-08-21T00:08:31.000Z,71.75
2023-08-21T00:09:31.000Z,71.80
2023-08-21T00:10:32.000Z,72.27
2023-08-21T00:11:31.000Z,71.75
2023-08-21T00:12:30.000Z,71.67
2023-08-21T00:13:31.000Z,71.45
2023-08-21T00:14:31.000Z,71.32
2023-08-21T00:15:30.000Z,71.48
2023-08-21T00:16:30.000Z,71.48
2023-08-21T00:17:30.000Z,71.12
2023-08-21T00:18:31.000Z,73.29
2023-08-21T00:19:32.000Z,72.91
2023-08-21T00:20:31.000Z,72.33
2023-08-21T00:21:30.000Z,72.31
2023-08-21T00:22:31.000Z,72.18
2023-08-21T00:23:31.000Z,72.06
2023-08-21T00:24:31.000Z,71.80
2023-08-21T00:25:30.000Z,71.92
2023-08-21T00:26:31.000Z,72.19
2023-08-21T00:27:31.000Z,72.28
2023-08-21T00:28:32.000Z,73.54
2023-08-21T00:29:30.000Z,72.81
2023-08-21T00:30:31.000Z,72.86
2023-08-21T00:31:31.000Z,72.48
2023-08-21T00:32:31.000Z,72.24
2023-08-21T00:33:31.000Z,72.68
2023-08-21T00:34:31.000Z,73.03
2023-08-21T00:35:31.000Z,72.47
2023-08-21T00:36:31.000Z,72.75
2023-08-21T00:37:31.000Z,73.12
2023-08-21T00:38:31.000Z,73.28
2023-08-21T00:39:31.000Z,73.36
2023-08-21T00:40:31.000Z,73.08
2023-08-21T00:41:34.000Z,72.62
2023-08-21T00:42:31.000Z,72.68
2023-08-21T00:43:31.000Z,73.34
2023-08-21T00:44:31.000Z,73.56
2023-08-21T00:45:31.000Z,73.19
2023-08-21T00:46:31.000Z,73.00
2023-08-21T00:47:31.000Z,72.95
2023-08-21T00:48:31.000Z,72.86
2023-08-21T00:49:31.000Z,72.53
2023-08-21T00:50:31.000Z,73.12
2023-08-21T00:51:31.000Z,73.22
2023-08-21T00:52:31.000Z,73.73
2023-08-21T00:53:31.000Z,73.31
2023-08-21T00:54:31.000Z,73.30
2023-08-21T00:55:31.000Z,74.71
2023-08-21T00:56:31.000Z,74.29
2023-08-21T00:57:31.000Z,74.44
2023-08-21T00:58:31.000Z,73.80
2023-08-21T00:59:31.000Z,73.61
2023-08-21T01:00:32.000Z,73.70
2023-08-21T01:01:32.000Z,73.47
2023-08-21T01:02:31.000Z,73.50
2023-08-21T01:03:31.000Z,73.23
2023-08-21T01:04:31.000Z,74.68
2023-08-21T01:05:31.000Z,74.71
2023-08-21T01:06:31.000Z,74.08
2023-08-21T01:07:42.000Z,74.30
2023-08-21T01:08:41.000Z,74.02
2023-08-21T01:09:39.000Z,74.05
2023-08-21T01:10:41.000Z,74.17
2023-08-21T01:11:40.000Z,73.79
2023-08-21T01:12:40.000Z,74.21
2023-08-21T01:13:47.000Z,74.18
2023-08-21T01:14:43.000Z,74.69
2023-08-21T01:15:31.000Z,74.32
2023-08-21T01:16:32.000Z,74.66
2023-08-21T01:17:33.000Z,73.97
2023-08-21T01:18:33.000Z,74.06
2023-08-21T01:19:39.000Z,73.73
2023-08-21T01:20:31.000Z,73.76
2023-08-21T01:21:31.000Z,73.47
2023-08-21T01:22:37.000Z,74.90
2023-08-21T01:23:35.000Z,74.67
2023-08-21T01:24:30.000Z,74.44
2023-08-21T01:25:31.000Z,73.84
2023-08-21T01:26:30.000Z,74.24
2023-08-21T01:27:32.000Z,74.29
2023-08-21T01:28:33.000Z,73.97
2023-08-21T01:29:32.000Z,73.73
2023-08-21T01:30:32.000Z,74.23
2023-08-21T01:31:34.000Z,75.28
2023-08-21T01:32:54.000Z,74.63
2023-08-21T01:33:34.000Z,74.46
2023-08-21T01:34:34.000Z,74.00
2023-08-21T01:35:33.000Z,74.18
2023-08-21T01:36:31.000Z,74.16
2023-08-21T01:37:30.000Z,74.99
2023-08-21T01:38:32.000Z,74.77
2023-08-21T01:39:30.000Z,74.53
2023-08-21T01:40:30.000Z,74.23
2023-08-21T01:41:30.000Z,74.11
2023-08-21T01:42:30.000Z,73.93
2023-08-21T01:43:30.000Z,74.08
2023-08-21T01:44:30.000Z,74.24
2023-08-21T01:45:30.000Z,74.53
2023-08-21T01:46:30.000Z,74.18
2023-08-21T01:47:30.000Z,74.52
2023-08-21T01:48:30.000Z,74.65
2023-08-21T01:49:30.000Z,74.61
2023-08-21T01:50:30.000Z,74.46
2023-08-21T01:51:30.000Z,74.28
2023-08-21T01:52:30.000Z,74.29
2023-08-21T01:53:30.000Z,74.12
2023-08-21T01:54:30.000Z,75.17
2023-08-21T01:55:30.000Z,75.29
2023-08-21T01:56:30.000Z,75.73
2023-08-21T01:57:30.000Z,75.09
2023-08-21T01:58:30.000Z,75.44
2023-08-21T01:59:30.000Z,75.44
2023-08-21T02:00:30.000Z,75.33
2023-08-21T02:01:30.000Z,75.40
2023-08-21T02:02:30.000Z,75.41
2023-08-21T02:03:30.000Z,75.04
2023-08-21T02:04:30.000Z,74.96
2023-08-21T02:05:36.000Z,74.90
2023-08-21T02:06:30.000Z,75.24
2023-08-21T02:07:30.000Z,75.75
2023-08-21T02:08:32.000Z,75.40
2023-08-21T02:09:30.000Z,75.99
2023-08-21T02:10:30.000Z,75.86
2023-08-21T02:11:30.000Z,76.01
2023-08-21T02:12:30.000Z,75.54
2023-08-21T02:13:32.000Z,75.61
2023-08-21T02:14:30.000Z,76.12
2023-08-21T02:15:30.000Z,75.56
2023-08-21T02:16:31.000Z,75.38
2023-08-21T02:17:31.000Z,76.27
2023-08-21T02:18:30.000Z,75.69
2023-08-21T02:19:30.000Z,75.35
2023-08-21T02:20:30.000Z,75.40
2023-08-21T02:21:31.000Z,75.72
2023-08-21T02:22:30.000Z,75.52
2023-08-21T02:23:30.000Z,75.73
2023-08-21T02:24:30.000Z,76.09
2023-08-21T02:25:31.000Z,76.08
2023-08-21T02:26:30.000Z,76.32
2023-08-21T02:27:30.000Z,76.38
2023-08-21T02:28:30.000Z,76.31
2023-08-21T02:29:30.000Z,76.20
2023-08-21T02:30:30.000Z,75.90
2023-08-21T02:31:30.000Z,75.57
2023-08-21T02:32:30.000Z,75.33
2023-08-21T02:33:30.000Z,75.22
2023-08-21T02:34:30.000Z,75.50
2023-08-21T02:35:30.000Z,75.44
2023-08-21T02:36:30.000Z,75.37
2023-08-21T02:37:31.000Z,75.24
2023-08-21T02:38:30.000Z,75.19
2023-08-21T02:39:30.000Z,75.08
2023-08-21T02:40:31.000Z,75.06
2023-08-21T02:41:30.000Z,75.10
2023-08-21T02:42:30.000Z,75.35
2023-08-21T02:43:30.000Z,75.25
2023-08-21T02:44:30.000Z,75.84
2023-08-21T02:45:30.000Z,76.14
2023-08-21T02:46:31.000Z,76.08
2023-08-21T02:47:30.000Z,75.84
2023-08-21T02:48:30.000Z,75.71
2023-08-21T02:49:30.000Z,75.67
2023-08-21T02:50:31.000Z,75.64
2023-08-21T02:51:30.000Z,75.51
2023-08-21T02:52:32.000Z,75.49
2023-08-21T02:53:30.000Z,75.68
2023-08-21T02:54:30.000Z,75.51
2023-08-21T02:55:31.000Z,75.41
2023-08-21T02:56:31.000Z,75.81
2023-08-21T02:57:31.000Z,75.44
2023-08-21T02:58:30.000Z,75.61
2023-08-21T02:59:30.000Z,75.81
2023-08-21T03:00:30.000Z,75.55
2023-08-21T03:01:31.000Z,76.07
2023-08-21T03:02:31.000Z,75.97
2023-08-21T03:03:32.000Z,76.37
2023-08-21T03:04:30.000Z,76.21
2023-08-21T03:05:30.000Z,76.68
2023-08-21T03:06:30.000Z,76.33
2023-08-21T03:07:31.000Z,76.16
2023-08-21T03:08:31.000Z,76.09
2023-08-21T03:09:30.000Z,75.87
2023-08-21T03:10:33.000Z,75.81
2023-08-21T03:11:30.000Z,75.81
2023-08-21T03:12:31.000Z,75.84
2023-08-21T03:13:30.000Z,75.94
2023-08-21T03:14:30.000Z,75.67
2023-08-21T03:15:30.000Z,75.59
2023-08-21T03:16:30.000Z,75.88
2023-08-21T03:17:30.000Z,75.62
2023-08-21T03:18:31.000Z,75.58
2023-08-21T03:19:31.000Z,75.69
2023-08-21T03:20:30.000Z,75.75
2023-08-21T03:21:31.000Z,75.66
2023-08-21T03:22:31.000Z,75.54
2023-08-21T03:23:30.000Z,75.55
2023-08-21T03:24:30.000Z,75.47
2023-08-21T03:25:30.000Z,75.55
2023-08-21T03:26:31.000Z,75.55
2023-08-21T03:27:30.000Z,75.55
2023-08-21T03:28:30.000Z,75.80
2023-08-21T03:29:30.000Z,75.78
2023-08-21T03:30:30.000Z,75.75
2023-08-21T03:31:31.000Z,75.50
2023-08-21T03:32:31.000Z,75.72
2023-08-21T03:33:30.000Z,75.57
2023-08-21T03:34:30.000Z,75.51
2023-08-21T03:35:30.000Z,75.44
2023-08-21T03:36:31.000Z,75.63
2023-08-21T03:37:30.000Z,75.57
2023-08-21T03:38:30.000Z,76.30
2023-08-21T03:39:30.000Z,76.60
2023-08-21T03:40:30.000Z,76.66
2023-08-21T03:41:31.000Z,76.87
2023-08-21T03:42:30.000Z,76.62
2023-08-21T03:43:31.000Z,76.79
2023-08-21T03:44:30.000Z,76.43
2023-08-21T03:45:31.000Z,76.62
2023-08-21T03:46:31.000Z,76.59
2023-08-21T03:47:30.000Z,76.13
2023-08-21T03:48:30.000Z,76.24
2023-08-21T03:49:40.000Z,76.13
2023-08-21T03:50:31.000Z,76.48
2023-08-21T03:51:31.000Z,76.77
2023-08-21T03:52:30.000Z,76.61
2023-08-21T03:53:30.000Z,76.48
2023-08-21T03:54:31.000Z,76.53
2023-08-21T03:55:30.000Z,76.10
2023-08-21T03:56:31.000Z,76.14
2023-08-21T03:57:30.000Z,76.76
2023-08-21T03:58:31.000Z,77.13
2023-08-21T03:59:31.000Z,77.14
2023-08-21T04:00:31.000Z,77.31
2023-08-21T04:01:30.000Z,77.33
2023-08-21T04:02:30.000Z,77.53
2023-08-21T04:03:31.000Z,77.67
2023-08-21T04:04:30.000Z,77.73
2023-08-21T04:05:30.000Z,77.53
2023-08-21T04:06:30.000Z,77.63
2023-08-21T04:07:30.000Z,77.37
2023-08-21T04:08:30.000Z,77.29
2023-08-21T04:09:30.000Z,77.25
2023-08-21T04:10:31.000Z,76.99
2023-08-21T04:11:31.000Z,76.98
2023-08-21T04:12:31.000Z,77.59
2023-08-21T04:13:31.000Z,76.97
2023-08-21T04:14:30.000Z,76.98
2023-08-21T04:15:31.000Z,77.60
2023-08-21T04:16:31.000Z,77.49
2023-08-21T04:17:31.000Z,77.01
2023-08-21T04:18:30.000Z,77.46
2023-08-21T04:19:33.000Z,77.17
2023-08-21T04:20:31.000Z,77.11
2023-08-21T04:21:31.000Z,77.40
2023-08-21T04:22:31.000Z,77.76
2023-08-21T04:23:30.000Z,77.41
2023-08-21T04:24:30.000Z,77.15
2023-08-21T04:25:31.000Z,76.91
2023-08-21T04:26:31.000Z,77.87
2023-08-21T04:27:31.000Z,77.83
2023-08-21T04:28:31.000Z,77.68
2023-08-21T04:29:31.000Z,77.74
2023-08-21T04:30:31.000Z,77.77
2023-08-21T04:31:31.000Z,77.62
2023-08-21T04:32:31.000Z,77.52
2023-08-21T04:33:32.000Z,77.36
2023-08-21T04:34:32.000Z,77.80
2023-08-21T04:35:36.000Z,77.38
2023-08-21T04:36:30.000Z,77.25
2023-08-21T04:37:31.000Z,77.91
2023-08-21T04:38:30.000Z,77.98
2023-08-21T04:39:31.000Z,77.33
2023-08-21T04:40:30.000Z,77.21
2023-08-21T04:41:30.000Z,77.23
2023-08-21T04:42:30.000Z,77.13
2023-08-21T04:43:30.000Z,77.89
2023-08-21T04:44:30.000Z,78.04
2023-08-21T04:45:30.000Z,77.71
2023-08-21T04:46:30.000Z,77.41
2023-08-21T04:47:31.000Z,77.40
2023-08-21T04:48:30.000Z,77.18
2023-08-21T04:49:30.000Z,77.35
2023-08-21T04:50:30.000Z,77.75
2023-08-21T04:51:31.000Z,77.84
2023-08-21T04:52:30.000Z,77.94
2023-08-21T04:53:31.000Z,77.59
2023-08-21T04:54:32.000Z,77.38
2023-08-21T04:55:30.000Z,77.15
2023-08-21T04:56:30.000Z,77.22
2023-08-21T04:57:30.000Z,77.56
2023-08-21T04:58:30.000Z,77.46
2023-08-21T04:59:30.000Z,77.55
2023-08-21T05:00:30.000Z,78.26
2023-08-21T05:01:30.000Z,78.21
2023-08-21T05:02:30.000Z,78.08
2023-08-21T05:03:31.000Z,78.41
2023-08-21T05:04:30.000Z,77.99
2023-08-21T05:05:30.000Z,77.67
2023-08-21T05:06:30.000Z,77.82
2023-08-21T05:07:30.000Z,77.58
2023-08-21T05:08:30.000Z,77.41
2023-08-21T05:09:31.000Z,77.60
2023-08-21T05:10:31.000Z,77.65
2023-08-21T05:11:31.000Z,77.64
2023-08-21T05:12:31.000Z,77.74
2023-08-21T05:13:31.000Z,77.55
2023-08-21T05:14:31.000Z,77.54
2023-08-21T05:15:31.000Z,77.95
2023-08-21T05:16:31.000Z,77.57
2023-08-21T05:17:31.000Z,77.77
2023-08-21T05:18:31.000Z,78.85
2023-08-21T05:19:31.000Z,78.91
2023-08-21T05:20:31.000Z,78.41
2023-08-21T05:21:31.000Z,78.71
2023-08-21T05:22:31.000Z,78.30
2023-08-21T05:23:31.000Z,78.67
2023-08-21T05:24:31.000Z,78.69
2023-08-21T05:25:32.000Z,78.67
2023-08-21T05:26:31.000Z,78.31
2023-08-21T05:27:31.000Z,78.75
2023-08-21T05:28:31.000Z,78.49
2023-08-21T05:29:31.000Z,78.03
2023-08-21T05:30:31.000Z,77.88
2023-08-21T05:31:31.000Z,77.68
2023-08-21T05:32:31.000Z,78.42
2023-08-21T05:33:31.000Z,78.55
2023-08-21T05:34:31.000Z,78.64
2023-08-21T05:35:34.000Z,78.54
2023-08-21T05:36:31.000Z,78.94
2023-08-21T05:37:31.000Z,79.01
2023-08-21T05:38:32.000Z,78.84
2023-08-21T05:39:31.000Z,79.00
2023-08-21T05:40:31.000Z,78.79
2023-08-21T05:41:31.000Z,78.43
2023-08-21T05:42:30.000Z,78.12
2023-08-21T05:43:30.000Z,78.40
2023-08-21T05:44:30.000Z,78.46
2023-08-21T05:45:31.000Z,78.79
2023-08-21T05:46:30.000Z,78.72
2023-08-21T05:47:31.000Z,78.89
2023-08-21T05:48:30.000Z,79.24
2023-08-21T05:49:30.000Z,78.74
2023-08-21T05:50:30.000Z,79.08
2023-08-21T05:51:30.000Z,79.44
2023-08-21T05:52:30.000Z,79.29
2023-08-21T05:53:30.000Z,79.60
2023-08-21T05:54:30.000Z,79.70
2023-08-21T05:55:30.000Z,80.15
2023-08-21T05:56:30.000Z,79.82
2023-08-21T05:57:30.000Z,79.90
2023-08-21T05:58:32.000Z,80.20
2023-08-21T05:59:31.000Z,80.12
2023-08-21T06:00:33.000Z,79.68
2023-08-21T06:01:30.000Z,80.22
2023-08-21T06:02:30.000Z,80.05
2023-08-21T06:03:30.000Z,80.05
2023-08-21T06:04:30.000Z,79.89
2023-08-21T06:05:30.000Z,80.11
2023-08-21T06:06:30.000Z,79.99
2023-08-21T06:07:32.000Z,80.31
2023-08-21T06:08:31.000Z,80.28
2023-08-21T06:09:33.000Z,80.32
2023-08-21T06:10:31.000Z,80.31
2023-08-21T06:11:30.000Z,80.67
2023-08-21T06:12:30.000Z,80.72
2023-08-21T06:13:30.000Z,80.54
2023-08-21T06:14:30.000Z,80.54
2023-08-21T06:15:30.000Z,80.69
2023-08-21T06:16:30.000Z,81.04
2023-08-21T06:17:30.000Z,80.86
2023-08-21T06:18:30.000Z,80.80
2023-08-21T06:19:30.000Z,80.51
2023-08-21T06:20:30.000Z,80.54
2023-08-21T06:21:30.000Z,80.63
2023-08-21T06:22:30.000Z,80.81
2023-08-21T06:23:30.000Z,80.55
2023-08-21T06:24:30.000Z,80.28
2023-08-21T06:25:31.000Z,80.01
2023-08-21T06:26:30.000Z,79.99
2023-08-21T06:27:30.000Z,79.90
2023-08-21T06:28:30.000Z,79.68
2023-08-21T06:29:30.000Z,79.54
2023-08-21T06:30:30.000Z,80.03
2023-08-21T06:31:30.000Z,80.09
2023-08-21T06:32:30.000Z,80.20
2023-08-21T06:33:30.000Z,79.88
2023-08-21T06:34:30.000Z,79.56
2023-08-21T06:35:30.000Z,79.58
2023-08-21T06:36:30.000Z,79.55
2023-08-21T06:37:30.000Z,79.15
2023-08-21T06:38:30.000Z,79.14
2023-08-21T06:39:30.000Z,79.04
2023-08-21T06:40:30.000Z,79.23
2023-08-21T06:41:30.000Z,79.01
2023-08-21T06:42:31.000Z,79.08
2023-08-21T06:43:31.000Z,79.09
2023-08-21T06:44:31.000Z,79.07
2023-08-21T06:45:32.000Z,79.05
2023-08-21T06:46:30.000Z,78.68
2023-08-21T06:47:31.000Z,78.85
2023-08-21T06:48:31.000Z,79.07
2023-08-21T06:49:30.000Z,79.02
2023-08-21T06:50:30.000Z,78.58
2023-08-21T06:51:31.000Z,78.94
2023-08-21T06:52:30.000Z,78.53
2023-08-21T06:53:31.000Z,78.50
2023-08-21T06:54:31.000Z,78.25
2023-08-21T06:55:31.000Z,78.36
2023-08-21T06:56:32.000Z,78.45
2023-08-21T06:57:31.000Z,78.16
2023-08-21T06:58:31.000Z,78.17
2023-08-21T06:59:32.000Z,77.89
2023-08-21T07:00:30.000Z,77.97
2023-08-21T07:01:31.000Z,78.37
2023-08-21T07:02:31.000Z,78.24
2023-08-21T07:03:30.000Z,78.13
2023-08-21T07:04:33.000Z,77.99
2023-08-21T07:05:31.000Z,78.48
2023-08-21T07:06:31.000Z,77.94
2023-08-21T07:07:30.000Z,77.73
2023-08-21T07:08:31.000Z,77.54
2023-08-21T07:09:31.000Z,77.56
2023-08-21T07:10:37.000Z,77.69
2023-08-21T07:11:30.000Z,77.58
2023-08-21T07:12:31.000Z,77.69
2023-08-21T07:13:31.000Z,77.63
2023-08-21T07:14:31.000Z,77.44
2023-08-21T07:15:31.000Z,77.25
2023-08-21T07:16:30.000Z,77.18
2023-08-21T07:17:31.000Z,77.00
2023-08-21T07:18:32.000Z,76.95
2023-08-21T07:19:31.000Z,76.81
2023-08-21T07:20:31.000Z,76.68
2023-08-21T07:21:31.000Z,76.79
2023-08-21T07:22:32.000Z,76.78
2023-08-21T07:23:32.000Z,77.23
2023-08-21T07:24:31.000Z,76.76
2023-08-21T07:25:31.000Z,76.87
2023-08-21T07:26:31.000Z,76.65
2023-08-21T07:27:31.000Z,76.55
2023-08-21T07:28:30.000Z,76.59
2023-08-21T07:29:30.000Z,76.63
2023-08-21T07:30:31.000Z,76.45
2023-08-21T07:31:32.000Z,76.34
2023-08-21T07:32:30.000Z,76.68
2023-08-21T07:33:30.000Z,76.36
2023-08-21T07:34:31.000Z,75.88
2023-08-21T07:35:32.000Z,75.84
2023-08-21T07:36:32.000Z,75.91
2023-08-21T07:37:31.000Z,75.89
2023-08-21T07:38:31.000Z,75.87
2023-08-21T07:39:31.000Z,75.98
2023-08-21T07:40:30.000Z,75.98
2023-08-21T07:41:31.000Z,75.81
2023-08-21T07:42:30.000Z,75.82
2023-08-21T07:43:31.000Z,75.97
2023-08-21T07:44:31.000Z,76.09
2023-08-21T07:45:30.000Z,75.79
2023-08-21T07:46:31.000Z,75.49
2023-08-21T07:47:31.000Z,75.50
2023-08-21T07:48:31.000Z,75.69
2023-08-21T07:49:31.000Z,75.67
2023-08-21T07:50:30.000Z,75.84
2023-08-21T07:51:31.000Z,75.87
2023-08-21T07:52:30.000Z,75.46
2023-08-21T07:53:31.000Z,75.22
2023-08-21T07:54:31.000Z,75.16
2023-08-21T07:55:30.000Z,75.16
2023-08-21T07:56:31.000Z,75.16
2023-08-21T07:57:31.000Z,75.16
2023-08-21T07:58:31.000Z,75.32
2023-08-21T07:59:31.000Z,75.18
2023-08-21T08:00:31.000Z,74.73
2023-08-21T08:01:30.000Z,74.57
2023-08-21T08:02:30.000Z,74.59
2023-08-21T08:03:31.000Z,74.67
2023-08-21T08:04:30.000Z,74.89
2023-08-21T08:05:31.000Z,74.54
2023-08-21T08:06:31.000Z,73.92
2023-08-21T08:07:30.000Z,74.18
2023-08-21T08:08:31.000Z,74.29
2023-08-21T08:09:30.000Z,73.55
2023-08-21T08:10:31.000Z,73.60
2023-08-21T08:11:31.000Z,73.41
2023-08-21T08:12:33.000Z,73.89
2023-08-21T08:13:31.000Z,73.66
2023-08-21T08:14:31.000Z,73.04
2023-08-21T08:15:31.000Z,72.25
2023-08-21T08:16:30.000Z,72.13
2023-08-21T08:17:30.000Z,71.93
2023-08-21T08:18:30.000Z,71.84
2023-08-21T08:19:30.000Z,72.24
2023-08-21T08:20:31.000Z,72.27
2023-08-21T08:21:31.000Z,72.12
2023-08-21T08:22:30.000Z,72.23
2023-08-21T08:23:30.000Z,71.56
2023-08-21T08:24:31.000Z,71.87
2023-08-21T08:25:31.000Z,72.01
2023-08-21T08:26:31.000Z,71.57
2023-08-21T08:27:30.000Z,71.88
2023-08-21T08:28:31.000Z,71.90
2023-08-21T08:29:30.000Z,71.58
2023-08-21T08:30:31.000Z,71.28
2023-08-21T08:31:31.000Z,71.95
2023-08-21T08:32:31.000Z,71.70
2023-08-21T08:33:31.000Z,72.14
2023-08-21T08:34:30.000Z,71.37
2023-08-21T08:35:31.000Z,70.40
2023-08-21T08:36:30.000Z,70.53
2023-08-21T08:37:31.000Z,71.00
2023-08-21T08:38:30.000Z,71.10
2023-08-21T08:39:31.000Z,70.81
2023-08-21T08:40:31.000Z,71.09
2023-08-21T08:41:42.000Z,71.03
2023-08-21T08:42:30.000Z,70.56
2023-08-21T08:43:32.000Z,70.47
2023-08-21T08:44:34.000Z,70.23
2023-08-21T08:45:30.000Z,70.34
2023-08-21T08:46:30.000Z,70.34
2023-08-21T08:47:34.000Z,70.49
2023-08-21T08:48:30.000Z,70.31
2023-08-21T08:49:30.000Z,70.02
2023-08-21T08:50:31.000Z,69.67
2023-08-21T08:51:33.000Z,69.94
2023-08-21T08:52:34.000Z,70.05
2023-08-21T08:53:30.000Z,70.51
2023-08-21T08:54:30.000Z,69.36
2023-08-21T08:55:30.000Z,69.74
2023-08-21T08:56:30.000Z,69.22
2023-08-21T08:57:30.000Z,69.68
2023-08-21T08:58:30.000Z,69.84
2023-08-21T08:59:31.000Z,70.02
2023-08-21T09:00:30.000Z,70.32
2023-08-21T09:01:30.000Z,68.64
2023-08-21T09:02:30.000Z,68.76
2023-08-21T09:03:30.000Z,68.62
2023-08-21T09:04:30.000Z,67.82
2023-08-21T09:05:31.000Z,67.93
2023-08-21T09:06:31.000Z,68.79
2023-08-21T09:07:30.000Z,68.90
2023-08-21T09:08:30.000Z,68.70
2023-08-21T09:09:39.000Z,67.59
2023-08-21T09:10:30.000Z,67.80
2023-08-21T09:11:31.000Z,67.96
2023-08-21T09:12:32.000Z,67.81
2023-08-21T09:13:30.000Z,67.52
2023-08-21T09:14:30.000Z,67.70
2023-08-21T09:15:31.000Z,67.60
2023-08-21T09:16:30.000Z,67.98
2023-08-21T09:17:32.000Z,68.16
2023-08-21T09:18:33.000Z,67.07
2023-08-21T09:19:30.000Z,67.42
2023-08-21T09:20:34.000Z,66.94
2023-08-21T09:21:30.000Z,67.30
2023-08-21T09:22:30.000Z,67.67
2023-08-21T09:23:31.000Z,68.07
2023-08-21T09:24:30.000Z,67.58
2023-08-21T09:25:33.000Z,67.39
2023-08-21T09:26:31.000Z,66.70
2023-08-21T09:27:30.000Z,67.54
2023-08-21T09:28:30.000Z,66.87
2023-08-21T09:29:40.000Z,66.63
2023-08-21T09:30:43.000Z,67.68
2023-08-21T09:31:32.000Z,67.68
2023-08-21T09:32:50.000Z,67.94
2023-08-21T09:33:30.000Z,67.56
2023-08-21T09:34:34.000Z,67.22
2023-08-21T09:35:32.000Z,66.96
2023-08-21T09:36:31.000Z,67.18
2023-08-21T09:37:30.000Z,66.51
2023-08-21T09:38:30.000Z,67.32
2023-08-21T09:39:35.000Z,67.54
2023-08-21T09:40:30.000Z,66.48
2023-08-21T09:41:30.000Z,66.60
2023-08-21T09:42:30.000Z,66.03
2023-08-21T09:43:30.000Z,65.40
2023-08-21T09:44:39.000Z,65.74
2023-08-21T09:45:30.000Z,65.89
2023-08-21T09:46:29.000Z,65.73
2023-08-21T09:47:31.000Z,65.05
2023-08-21T09:48:30.000Z,64.64
2023-08-21T09:49:32.000Z,63.85
2023-08-21T09:50:30.000Z,64.12
2023-08-21T09:51:30.000Z,64.01
2023-08-21T09:52:30.000Z,64.35
2023-08-21T09:53:30.000Z,63.64
2023-08-21T09:54:34.000Z,62.51
2023-08-21T09:55:31.000Z,63.61
2023-08-21T09:56:31.000Z,62.88
2023-08-21T09:57:31.000Z,62.72
2023-08-21T09:58:30.000Z,63.54
2023-08-21T09:59:30.000Z,63.42
2023-08-21T10:00:31.000Z,64.27
2023-08-21T10:01:32.000Z,64.36
2023-08-21T10:02:30.000Z,63.86
2023-08-21T10:03:31.000Z,63.12
2023-08-21T10:04:31.000Z,63.64
2023-08-21T10:05:31.000Z,64.32
2023-08-21T10:06:30.000Z,63.85
2023-08-21T10:07:30.000Z,63.87
2023-08-21T10:08:32.000Z,63.25
2023-08-21T10:09:30.000Z,62.89
2023-08-21T10:10:32.000Z,63.73
2023-08-21T10:11:30.000Z,64.10
2023-08-21T10:12:30.000Z,64.11
2023-08-21T10:13:32.000Z,63.83
2023-08-21T10:14:32.000Z,64.17
2023-08-21T10:15:31.000Z,63.69
2023-08-21T10:16:30.000Z,63.83
2023-08-21T10:17:30.000Z,63.62
2023-08-21T10:18:33.000Z,63.58
2023-08-21T10:19:31.000Z,62.71
2023-08-21T10:20:30.000Z,62.06
2023-08-21T10:21:34.000Z,60.78
2023-08-21T10:22:40.000Z,60.05
2023-08-21T10:23:30.000Z,61.11
2023-08-21T10:24:35.000Z,61.37
2023-08-21T10:25:30.000Z,62.36
2023-08-21T10:26:30.000Z,62.54
2023-08-21T10:27:30.000Z,63.31
2023-08-21T10:28:40.000Z,62.46
2023-08-21T10:29:33.000Z,62.54
2023-08-21T10:30:30.000Z,62.64
2023-08-21T10:31:37.000Z,62.92
2023-08-21T10:32:30.000Z,60.85
2023-08-21T10:33:40.000Z,62.15
2023-08-21T10:34:35.000Z,61.99
2023-08-21T10:35:31.000Z,61.47
2023-08-21T10:36:40.000Z,61.29
2023-08-21T10:37:30.000Z,60.47
2023-08-21T10:38:30.000Z,61.60
2023-08-21T10:39:32.000Z,61.01
2023-08-21T10:40:30.000Z,61.49
2023-08-21T10:41:30.000Z,61.65
2023-08-21T10:42:38.000Z,61.03
2023-08-21T10:43:42.000Z,61.07
2023-08-21T10:44:46.000Z,61.34
2023-08-21T10:45:30.000Z,60.21
2023-08-21T10:46:50.000Z,61.04
2023-08-21T10:47:31.000Z,61.57
2023-08-21T10:48:30.000Z,60.84
2023-08-21T10:49:30.000Z,61.14
2023-08-21T10:50:30.000Z,61.73
2023-08-21T10:51:30.000Z,58.86
2023-08-21T10:52:41.000Z,59.83
2023-08-21T10:53:31.000Z,59.64
2023-08-21T10:54:45.000Z,59.32
2023-08-21T10:55:30.000Z,59.06
2023-08-21T10:56:31.000Z,59.64
2023-08-21T10:57:32.000Z,59.83
2023-08-21T10:58:44.000Z,59.50
2023-08-21T10:59:30.000Z,59.78
2023-08-21T11:00:30.000Z,59.68
2023-08-21T11:01:40.000Z,59.49
2023-08-21T11:02:32.000Z,59.17
2023-08-21T11:03:30.000Z,59.05
2023-08-21T11:04:39.000Z,57.58
2023-08-21T11:05:30.000Z,58.89
2023-08-21T11:06:32.000Z,58.31
2023-08-21T11:07:36.000Z,57.17
2023-08-21T11:08:35.000Z,57.58
2023-08-21T11:09:30.000Z,57.61
2023-08-21T11:10:31.000Z,57.94
2023-08-21T11:11:30.000Z,57.19
2023-08-21T11:12:30.000Z,57.84
2023-08-21T11:13:31.000Z,57.57
2023-08-21T11:14:30.000Z,57.87
2023-08-21T11:15:30.000Z,58.07
2023-08-21T11:16:30.000Z,57.31
2023-08-21T11:17:30.000Z,56.75
2023-08-21T11:18:35.000Z,57.39
2023-08-21T11:19:34.000Z,57.17
2023-08-21T11:20:34.000Z,56.86
2023-08-21T11:21:30.000Z,55.69
2023-08-21T11:22:31.000Z,55.76
2023-08-21T11:23:37.000Z,55.36
2023-08-21T11:24:41.000Z,55.12
2023-08-21T11:25:31.000Z,56.22
2023-08-21T11:26:30.000Z,55.76
2023-08-21T11:27:30.000Z,56.04
2023-08-21T11:28:31.000Z,56.14
2023-08-21T11:29:37.000Z,54.27
2023-08-21T11:30:31.000Z,54.82
2023-08-21T11:31:30.000Z,54.61
2023-08-21T11:32:30.000Z,54.99
2023-08-21T11:33:31.000Z,55.70
2023-08-21T11:34:32.000Z,56.11
2023-08-21T11:35:31.000Z,55.14
2023-08-21T11:36:30.000Z,55.16
2023-08-21T11:37:30.000Z,55.62
2023-08-21T11:38:30.000Z,54.75
2023-08-21T11:39:42.000Z,54.32
2023-08-21T11:40:34.000Z,52.55
2023-08-21T11:41:30.000Z,54.92
2023-08-21T11:42:32.000Z,54.98
2023-08-21T11:43:36.000Z,53.15
2023-08-21T11:44:30.000Z,53.91
2023-08-21T11:45:31.000Z,53.61
2023-08-21T11:46:30.000Z,54.22
2023-08-21T11:47:33.000Z,53.24
2023-08-21T11:48:30.000Z,53.29
2023-08-21T11:49:30.000Z,53.81
2023-08-21T11:50:30.000Z,52.91
2023-08-21T11:51:38.000Z,52.90
2023-08-21T11:52:32.000Z,52.66
2023-08-21T11:53:41.000Z,53.04
2023-08-21T11:54:34.000Z,54.12
2023-08-21T11:55:31.000Z,53.74
2023-08-21T11:56:31.000Z,53.33
2023-08-21T11:57:30.000Z,53.17
2023-08-21T11:58:30.000Z,54.17
2023-08-21T11:59:30.000Z,53.56
2023-08-21T12:00:30.000Z,53.26
2023-08-21T12:01:32.000Z,53.08
2023-08-21T12:02:30.000Z,53.23
2023-08-21T12:03:36.000Z,51.23
2023-08-21T12:04:30.000Z,51.48
2023-08-21T12:05:30.000Z,52.44
2023-08-21T12:06:32.000Z,51.81
2023-08-21T12:07:31.000Z,51.14
2023-08-21T12:08:30.000Z,51.07
2023-08-21T12:09:31.000Z,50.97
2023-08-21T12:10:30.000Z,51.58
2023-08-21T12:11:30.000Z,52.90
2023-08-21T12:12:30.000Z,51.66
2023-08-21T12:13:31.000Z,52.62
2023-08-21T12:14:30.000Z,52.36
2023-08-21T12:15:30.000Z,52.83
2023-08-21T12:16:30.000Z,52.41
2023-08-21T12:17:30.000Z,51.14
2023-08-21T12:18:30.000Z,50.98
2023-08-21T12:19:30.000Z,50.40
2023-08-21T12:20:29.000Z,51.21
2023-08-21T12:21:33.000Z,51.53
2023-08-21T12:22:29.000Z,51.73
2023-08-21T12:23:29.000Z,52.33
2023-08-21T12:24:30.000Z,51.76
2023-08-21T12:25:31.000Z,52.58
2023-08-21T12:26:29.000Z,51.10
2023-08-21T12:27:30.000Z,51.47
2023-08-21T12:28:29.000Z,51.69
2023-08-21T12:29:30.000Z,50.37
2023-08-21T12:30:29.000Z,50.38
2023-08-21T12:31:30.000Z,48.11
2023-08-21T12:32:29.000Z,49.21
2023-08-21T12:33:29.000Z,48.80
2023-08-21T12:34:29.000Z,49.01
2023-08-21T12:35:29.000Z,49.39
2023-08-21T12:36:30.000Z,49.08
2023-08-21T12:37:29.000Z,49.70
2023-08-21T12:38:29.000Z,49.50
2023-08-21T12:39:29.000Z,49.34
2023-08-21T12:40:30.000Z,49.01
2023-08-21T12:41:30.000Z,49.93
2023-08-21T12:42:29.000Z,49.71
2023-08-21T12:43:30.000Z,48.87
2023-08-21T12:44:30.000Z,49.13
2023-08-21T12:45:29.000Z,47.98
2023-08-21T12:46:29.000Z,48.27
2023-08-21T12:47:29.000Z,48.36
2023-08-21T12:48:30.000Z,48.67
2023-08-21T12:49:29.000Z,48.38
2023-08-21T12:50:30.000Z,47.76
2023-08-21T12:51:29.000Z,47.64
2023-08-21T12:52:30.000Z,48.12